sensor_id;sensor_type;location;lat;lon;timestamp;temperature;humidity
22765;DHT22;11549;50.852;3.816;2024-03-02T00:01:54;6.80;99.90
22765;DHT22;11549;50.852;3.816;2024-03-02T00:04:22;6.70;99.90
22765;DHT22;11549;50.852;3.816;2024-03-02T00:06:51;6.80;99.90
22765;DHT22;11549;50.852;3.816;2024-03-02T00:09:24;6.90;99.90
22765;DHT22;11549;50.852;3.816;2024-03-02T00:11:53;6.90;99.90
22765;DHT22;11549;50.852;3.816;2024-03-02T00:14:21;6.90;99.90
22765;DHT22;11549;50.852;3.816;2024-03-02T00:16:51;6.80;99.90
22765;DHT22;11549;50.852;3.816;2024-03-02T00:19:20;6.90;99.90
22765;DHT22;11549;50.852;3.816;2024-03-02T00:21:48;6.90;99.90
22765;DHT22;11549;50.852;3.816;2024-03-02T00:24:21;6.90;99.90
22765;DHT22;11549;50.852;3.816;2024-03-02T00:26:51;6.90;99.90
22765;DHT22;11549;50.852;3.816;2024-03-02T00:29:20;6.90;99.90
22765;DHT22;11549;50.852;3.816;2024-03-02T00:31:48;6.90;99.90
22765;DHT22;11549;50.852;3.816;2024-03-02T00:34:17;6.90;99.90
22765;DHT22;11549;50.852;3.816;2024-03-02T00:36:46;7.00;99.90
22765;DHT22;11549;50.852;3.816;2024-03-02T00:39:15;6.90;99.90
22765;DHT22;11549;50.852;3.816;2024-03-02T00:41:45;6.90;99.90
22765;DHT22;11549;50.852;3.816;2024-03-02T00:44:15;6.90;99.90
22765;DHT22;11549;50.852;3.816;2024-03-02T00:46:44;6.90;99.90
22765;DHT22;11549;50.852;3.816;2024-03-02T00:49:18;6.80;99.90
22765;DHT22;11549;50.852;3.816;2024-03-02T00:51:50;6.80;99.90
22765;DHT22;11549;50.852;3.816;2024-03-02T00:54:20;6.90;99.90
22765;DHT22;11549;50.852;3.816;2024-03-02T00:56:51;6.90;99.90
22765;DHT22;11549;50.852;3.816;2024-03-02T00:59:23;7.10;99.90
22765;DHT22;11549;50.852;3.816;2024-03-02T01:01:52;7.00;99.90
22765;DHT22;11549;50.852;3.816;2024-03-02T01:04:21;7.00;99.90
22765;DHT22;11549;50.852;3.816;2024-03-02T01:06:49;7.10;99.90
22765;DHT22;11549;50.852;3.816;2024-03-02T01:09:18;7.00;99.90
22765;DHT22;11549;50.852;3.816;2024-03-02T01:11:46;7.10;99.90
22765;DHT22;11549;50.852;3.816;2024-03-02T01:14:15;7.10;99.90
22765;DHT22;11549;50.852;3.816;2024-03-02T01:16:45;7.10;99.90
22765;DHT22;11549;50.852;3.816;2024-03-02T01:19:13;7.10;99.90
22765;DHT22;11549;50.852;3.816;2024-03-02T01:21:42;7.10;99.90
22765;DHT22;11549;50.852;3.816;2024-03-02T01:24:11;7.10;99.90
22765;DHT22;11549;50.852;3.816;2024-03-02T01:26:40;7.00;99.90
22765;DHT22;11549;50.852;3.816;2024-03-02T01:29:09;6.80;99.90
22765;DHT22;11549;50.852;3.816;2024-03-02T01:31:37;6.80;99.90
22765;DHT22;11549;50.852;3.816;2024-03-02T01:34:08;6.80;99.90
22765;DHT22;11549;50.852;3.816;2024-03-02T01:36:36;6.80;99.90
22765;DHT22;11549;50.852;3.816;2024-03-02T01:39:05;6.80;99.90
22765;DHT22;11549;50.852;3.816;2024-03-02T01:41:36;6.80;99.90
22765;DHT22;11549;50.852;3.816;2024-03-02T01:44:05;6.70;99.90
22765;DHT22;11549;50.852;3.816;2024-03-02T01:46:33;6.80;99.90
22765;DHT22;11549;50.852;3.816;2024-03-02T01:49:03;6.70;99.90
22765;DHT22;11549;50.852;3.816;2024-03-02T01:51:33;6.60;99.90
22765;DHT22;11549;50.852;3.816;2024-03-02T01:54:02;6.60;99.90
22765;DHT22;11549;50.852;3.816;2024-03-02T01:56:30;6.60;99.90
22765;DHT22;11549;50.852;3.816;2024-03-02T01:58:59;6.70;99.90
22765;DHT22;11549;50.852;3.816;2024-03-02T02:01:27;6.70;99.90
22765;DHT22;11549;50.852;3.816;2024-03-02T02:03:56;6.70;99.90
22765;DHT22;11549;50.852;3.816;2024-03-02T02:06:25;6.80;99.90
22765;DHT22;11549;50.852;3.816;2024-03-02T02:08:55;6.90;99.90
22765;DHT22;11549;50.852;3.816;2024-03-02T02:11:24;6.80;99.90
22765;DHT22;11549;50.852;3.816;2024-03-02T02:13:53;6.80;99.90
22765;DHT22;11549;50.852;3.816;2024-03-02T02:16:23;6.80;99.90
22765;DHT22;11549;50.852;3.816;2024-03-02T02:18:51;6.70;99.90
22765;DHT22;11549;50.852;3.816;2024-03-02T02:21:24;6.80;99.90
22765;DHT22;11549;50.852;3.816;2024-03-02T02:23:53;6.80;99.90
22765;DHT22;11549;50.852;3.816;2024-03-02T02:26:21;6.90;99.90
22765;DHT22;11549;50.852;3.816;2024-03-02T02:28:50;6.90;99.90
22765;DHT22;11549;50.852;3.816;2024-03-02T02:31:19;6.80;99.90
22765;DHT22;11549;50.852;3.816;2024-03-02T02:33:47;6.90;99.90
22765;DHT22;11549;50.852;3.816;2024-03-02T02:36:16;7.00;99.90
22765;DHT22;11549;50.852;3.816;2024-03-02T02:38:48;7.00;99.90
22765;DHT22;11549;50.852;3.816;2024-03-02T02:41:17;7.10;99.90
22765;DHT22;11549;50.852;3.816;2024-03-02T02:43:45;7.00;99.90
22765;DHT22;11549;50.852;3.816;2024-03-02T02:46:14;7.00;99.90
22765;DHT22;11549;50.852;3.816;2024-03-02T02:48:42;6.90;99.90
22765;DHT22;11549;50.852;3.816;2024-03-02T02:51:11;6.80;99.90
22765;DHT22;11549;50.852;3.816;2024-03-02T02:53:40;6.80;99.90
22765;DHT22;11549;50.852;3.816;2024-03-02T02:56:10;6.80;99.90
22765;DHT22;11549;50.852;3.816;2024-03-02T02:58:40;6.80;99.90
22765;DHT22;11549;50.852;3.816;2024-03-02T03:01:08;6.80;99.90
22765;DHT22;11549;50.852;3.816;2024-03-02T03:03:37;6.80;99.90
22765;DHT22;11549;50.852;3.816;2024-03-02T03:06:06;6.80;99.90
22765;DHT22;11549;50.852;3.816;2024-03-02T03:08:35;6.80;99.90
22765;DHT22;11549;50.852;3.816;2024-03-02T03:11:04;6.80;99.90
22765;DHT22;11549;50.852;3.816;2024-03-02T03:13:35;6.70;99.90
22765;DHT22;11549;50.852;3.816;2024-03-02T03:16:04;6.70;99.90
22765;DHT22;11549;50.852;3.816;2024-03-02T03:18:32;6.80;99.90
22765;DHT22;11549;50.852;3.816;2024-03-02T03:21:01;6.80;99.90
22765;DHT22;11549;50.852;3.816;2024-03-02T03:23:30;6.80;99.90
22765;DHT22;11549;50.852;3.816;2024-03-02T03:25:58;6.80;99.90
22765;DHT22;11549;50.852;3.816;2024-03-02T03:28:28;6.70;99.90
22765;DHT22;11549;50.852;3.816;2024-03-02T03:30:57;6.80;99.90
22765;DHT22;11549;50.852;3.816;2024-03-02T03:33:26;6.80;99.90
22765;DHT22;11549;50.852;3.816;2024-03-02T03:35:54;6.70;99.90
22765;DHT22;11549;50.852;3.816;2024-03-02T03:38:23;6.70;99.90
22765;DHT22;11549;50.852;3.816;2024-03-02T03:40:51;6.70;99.90
22765;DHT22;11549;50.852;3.816;2024-03-02T03:43:19;6.80;99.90
22765;DHT22;11549;50.852;3.816;2024-03-02T03:45:48;6.70;99.90
22765;DHT22;11549;50.852;3.816;2024-03-02T03:48:18;6.60;99.90
22765;DHT22;11549;50.852;3.816;2024-03-02T03:50:46;6.80;99.90
22765;DHT22;11549;50.852;3.816;2024-03-02T03:53:15;6.80;99.90
22765;DHT22;11549;50.852;3.816;2024-03-02T03:55:43;6.70;99.90
22765;DHT22;11549;50.852;3.816;2024-03-02T03:58:14;6.80;99.90
22765;DHT22;11549;50.852;3.816;2024-03-02T04:00:45;6.70;99.90
22765;DHT22;11549;50.852;3.816;2024-03-02T04:03:14;6.70;99.90
22765;DHT22;11549;50.852;3.816;2024-03-02T04:05:44;6.70;99.90
22765;DHT22;11549;50.852;3.816;2024-03-02T04:08:12;6.70;99.90
22765;DHT22;11549;50.852;3.816;2024-03-02T04:10:41;6.70;99.90
22765;DHT22;11549;50.852;3.816;2024-03-02T04:13:09;6.70;99.90
22765;DHT22;11549;50.852;3.816;2024-03-02T04:15:38;6.70;99.90
22765;DHT22;11549;50.852;3.816;2024-03-02T04:18:07;6.60;99.90
22765;DHT22;11549;50.852;3.816;2024-03-02T04:20:35;6.50;99.90
22765;DHT22;11549;50.852;3.816;2024-03-02T04:23:06;6.60;99.90
22765;DHT22;11549;50.852;3.816;2024-03-02T04:25:34;6.50;99.90
22765;DHT22;11549;50.852;3.816;2024-03-02T04:28:03;6.50;99.90
22765;DHT22;11549;50.852;3.816;2024-03-02T04:30:32;6.50;99.90
22765;DHT22;11549;50.852;3.816;2024-03-02T04:33:00;6.60;99.90
22765;DHT22;11549;50.852;3.816;2024-03-02T04:35:29;6.40;99.90
22765;DHT22;11549;50.852;3.816;2024-03-02T04:37:58;6.40;99.90
22765;DHT22;11549;50.852;3.816;2024-03-02T04:40:28;6.40;99.90
22765;DHT22;11549;50.852;3.816;2024-03-02T04:42:56;6.40;99.90
22765;DHT22;11549;50.852;3.816;2024-03-02T04:45:26;6.40;99.90
22765;DHT22;11549;50.852;3.816;2024-03-02T04:47:54;6.30;99.90
22765;DHT22;11549;50.852;3.816;2024-03-02T04:50:22;6.30;99.90
22765;DHT22;11549;50.852;3.816;2024-03-02T04:52:51;6.20;99.90
22765;DHT22;11549;50.852;3.816;2024-03-02T04:55:20;6.20;99.90
22765;DHT22;11549;50.852;3.816;2024-03-02T04:58:14;6.10;99.90
22765;DHT22;11549;50.852;3.816;2024-03-02T05:00:42;6.10;99.90
22765;DHT22;11549;50.852;3.816;2024-03-02T05:03:14;6.00;99.90
22765;DHT22;11549;50.852;3.816;2024-03-02T05:05:42;6.00;99.90
22765;DHT22;11549;50.852;3.816;2024-03-02T05:08:11;6.00;99.90
22765;DHT22;11549;50.852;3.816;2024-03-02T05:10:40;6.00;99.90
22765;DHT22;11549;50.852;3.816;2024-03-02T05:13:08;6.00;99.90
22765;DHT22;11549;50.852;3.816;2024-03-02T05:15:38;6.00;99.90
22765;DHT22;11549;50.852;3.816;2024-03-02T05:18:07;6.10;99.90
22765;DHT22;11549;50.852;3.816;2024-03-02T05:20:36;6.00;99.90
22765;DHT22;11549;50.852;3.816;2024-03-02T05:23:04;6.00;99.90
22765;DHT22;11549;50.852;3.816;2024-03-02T05:25:33;6.10;99.90
22765;DHT22;11549;50.852;3.816;2024-03-02T05:28:02;6.00;99.90
22765;DHT22;11549;50.852;3.816;2024-03-02T05:30:31;6.00;99.90
22765;DHT22;11549;50.852;3.816;2024-03-02T05:33:01;6.10;99.90
22765;DHT22;11549;50.852;3.816;2024-03-02T05:35:29;6.10;99.90
22765;DHT22;11549;50.852;3.816;2024-03-02T05:37:58;6.10;99.90
22765;DHT22;11549;50.852;3.816;2024-03-02T05:40:27;6.00;99.90
22765;DHT22;11549;50.852;3.816;2024-03-02T05:42:55;6.00;99.90
22765;DHT22;11549;50.852;3.816;2024-03-02T05:45:24;5.90;99.90
22765;DHT22;11549;50.852;3.816;2024-03-02T05:47:53;5.80;99.90
22765;DHT22;11549;50.852;3.816;2024-03-02T05:50:23;5.80;99.90
22765;DHT22;11549;50.852;3.816;2024-03-02T05:52:51;5.90;99.90
22765;DHT22;11549;50.852;3.816;2024-03-02T05:55:20;5.70;99.90
22765;DHT22;11549;50.852;3.816;2024-03-02T05:57:48;5.70;99.90
22765;DHT22;11549;50.852;3.816;2024-03-02T06:00:29;5.80;99.90
22765;DHT22;11549;50.852;3.816;2024-03-02T06:02:58;5.70;99.90
22765;DHT22;11549;50.852;3.816;2024-03-02T06:05:28;5.80;99.90
22765;DHT22;11549;50.852;3.816;2024-03-02T06:07:57;5.70;99.90
22765;DHT22;11549;50.852;3.816;2024-03-02T06:10:25;5.70;99.90
22765;DHT22;11549;50.852;3.816;2024-03-02T06:12:53;5.70;99.90
22765;DHT22;11549;50.852;3.816;2024-03-02T06:15:22;5.70;99.90
22765;DHT22;11549;50.852;3.816;2024-03-02T06:17:51;5.80;99.90
22765;DHT22;11549;50.852;3.816;2024-03-02T06:20:19;5.70;99.90
22765;DHT22;11549;50.852;3.816;2024-03-02T06:22:50;5.70;99.90
22765;DHT22;11549;50.852;3.816;2024-03-02T06:25:18;5.70;99.90
22765;DHT22;11549;50.852;3.816;2024-03-02T06:27:46;5.70;99.90
22765;DHT22;11549;50.852;3.816;2024-03-02T06:30:15;5.60;99.90
22765;DHT22;11549;50.852;3.816;2024-03-02T06:32:44;5.70;99.90
22765;DHT22;11549;50.852;3.816;2024-03-02T06:35:12;5.70;99.90
22765;DHT22;11549;50.852;3.816;2024-03-02T06:37:41;5.70;99.90
22765;DHT22;11549;50.852;3.816;2024-03-02T06:40:11;5.70;99.90
22765;DHT22;11549;50.852;3.816;2024-03-02T06:42:39;5.70;99.90
22765;DHT22;11549;50.852;3.816;2024-03-02T06:45:08;5.70;99.90
22765;DHT22;11549;50.852;3.816;2024-03-02T06:47:36;5.70;99.90
22765;DHT22;11549;50.852;3.816;2024-03-02T06:50:05;5.70;99.90
22765;DHT22;11549;50.852;3.816;2024-03-02T06:52:35;5.70;99.90
22765;DHT22;11549;50.852;3.816;2024-03-02T06:55:03;5.80;99.90
22765;DHT22;11549;50.852;3.816;2024-03-02T06:57:34;5.90;99.90
22765;DHT22;11549;50.852;3.816;2024-03-02T07:00:02;6.00;99.90
22765;DHT22;11549;50.852;3.816;2024-03-02T07:02:32;6.00;99.90
22765;DHT22;11549;50.852;3.816;2024-03-02T07:05:00;6.10;99.90
22765;DHT22;11549;50.852;3.816;2024-03-02T07:07:29;6.30;99.90
22765;DHT22;11549;50.852;3.816;2024-03-02T07:09:57;6.30;99.90
22765;DHT22;11549;50.852;3.816;2024-03-02T07:12:26;6.50;99.90
22765;DHT22;11549;50.852;3.816;2024-03-02T07:14:56;6.70;99.90
22765;DHT22;11549;50.852;3.816;2024-03-02T07:17:52;6.80;99.90
22765;DHT22;11549;50.852;3.816;2024-03-02T07:20:21;7.00;99.90
22765;DHT22;11549;50.852;3.816;2024-03-02T07:22:49;7.20;99.90
22765;DHT22;11549;50.852;3.816;2024-03-02T07:25:17;7.30;99.90
22765;DHT22;11549;50.852;3.816;2024-03-02T07:27:49;7.30;99.90
22765;DHT22;11549;50.852;3.816;2024-03-02T07:30:19;7.30;99.90
22765;DHT22;11549;50.852;3.816;2024-03-02T07:32:50;7.60;99.90
22765;DHT22;11549;50.852;3.816;2024-03-02T07:35:18;7.70;99.90
22765;DHT22;11549;50.852;3.816;2024-03-02T07:37:49;7.80;99.90
22765;DHT22;11549;50.852;3.816;2024-03-02T07:40:17;7.90;99.90
22765;DHT22;11549;50.852;3.816;2024-03-02T07:42:45;7.90;99.90
22765;DHT22;11549;50.852;3.816;2024-03-02T07:45:14;8.20;99.90
22765;DHT22;11549;50.852;3.816;2024-03-02T07:47:44;8.20;99.90
22765;DHT22;11549;50.852;3.816;2024-03-02T07:50:12;8.40;99.90
22765;DHT22;11549;50.852;3.816;2024-03-02T07:52:41;8.70;99.90
22765;DHT22;11549;50.852;3.816;2024-03-02T07:55:10;9.20;99.90
22765;DHT22;11549;50.852;3.816;2024-03-02T07:57:38;9.20;99.90
22765;DHT22;11549;50.852;3.816;2024-03-02T08:00:08;9.30;99.90
22765;DHT22;11549;50.852;3.816;2024-03-02T08:02:37;9.70;99.90
22765;DHT22;11549;50.852;3.816;2024-03-02T08:05:07;10.00;99.90
22765;DHT22;11549;50.852;3.816;2024-03-02T08:07:36;10.00;99.90
22765;DHT22;11549;50.852;3.816;2024-03-02T08:10:06;9.80;99.90
22765;DHT22;11549;50.852;3.816;2024-03-02T08:12:34;9.90;99.90
22765;DHT22;11549;50.852;3.816;2024-03-02T08:15:03;9.80;99.90
22765;DHT22;11549;50.852;3.816;2024-03-02T08:17:32;9.50;99.90
22765;DHT22;11549;50.852;3.816;2024-03-02T08:20:07;9.40;99.90
22765;DHT22;11549;50.852;3.816;2024-03-02T08:22:36;9.40;99.90
22765;DHT22;11549;50.852;3.816;2024-03-02T08:25:05;9.20;99.90
22765;DHT22;11549;50.852;3.816;2024-03-02T08:27:33;9.30;99.90
22765;DHT22;11549;50.852;3.816;2024-03-02T08:30:02;9.60;99.90
22765;DHT22;11549;50.852;3.816;2024-03-02T08:32:34;9.70;99.90
22765;DHT22;11549;50.852;3.816;2024-03-02T08:35:03;9.80;99.90
22765;DHT22;11549;50.852;3.816;2024-03-02T08:37:33;9.70;99.90
22765;DHT22;11549;50.852;3.816;2024-03-02T08:40:02;9.50;99.90
22765;DHT22;11549;50.852;3.816;2024-03-02T08:42:34;9.20;99.90
22765;DHT22;11549;50.852;3.816;2024-03-02T08:45:03;9.00;99.90
22765;DHT22;11549;50.852;3.816;2024-03-02T08:47:32;9.10;99.90
22765;DHT22;11549;50.852;3.816;2024-03-02T08:50:00;9.30;99.90
22765;DHT22;11549;50.852;3.816;2024-03-02T08:52:30;9.50;99.90
22765;DHT22;11549;50.852;3.816;2024-03-02T08:55:00;9.80;99.90
22765;DHT22;11549;50.852;3.816;2024-03-02T08:57:29;10.10;99.90
22765;DHT22;11549;50.852;3.816;2024-03-02T08:59:57;10.30;99.90
22765;DHT22;11549;50.852;3.816;2024-03-02T09:02:26;10.30;99.90
22765;DHT22;11549;50.852;3.816;2024-03-02T09:04:55;10.60;99.90
22765;DHT22;11549;50.852;3.816;2024-03-02T09:07:23;10.70;99.90
22765;DHT22;11549;50.852;3.816;2024-03-02T09:09:51;10.60;99.90
22765;DHT22;11549;50.852;3.816;2024-03-02T09:12:22;10.70;99.90
22765;DHT22;11549;50.852;3.816;2024-03-02T09:14:50;10.50;99.90
22765;DHT22;11549;50.852;3.816;2024-03-02T09:17:19;10.30;99.90
22765;DHT22;11549;50.852;3.816;2024-03-02T09:19:47;10.30;99.90
22765;DHT22;11549;50.852;3.816;2024-03-02T09:22:15;10.60;99.90
22765;DHT22;11549;50.852;3.816;2024-03-02T09:24:44;10.90;99.90
22765;DHT22;11549;50.852;3.816;2024-03-02T09:27:12;11.10;99.90
22765;DHT22;11549;50.852;3.816;2024-03-02T09:29:42;11.30;99.90
22765;DHT22;11549;50.852;3.816;2024-03-02T09:32:13;11.20;99.90
22765;DHT22;11549;50.852;3.816;2024-03-02T09:34:41;11.30;99.90
22765;DHT22;11549;50.852;3.816;2024-03-02T09:37:10;11.30;99.90
22765;DHT22;11549;50.852;3.816;2024-03-02T09:39:39;11.40;99.90
22765;DHT22;11549;50.852;3.816;2024-03-02T09:42:08;11.20;99.90
22765;DHT22;11549;50.852;3.816;2024-03-02T09:44:37;11.30;99.90
22765;DHT22;11549;50.852;3.816;2024-03-02T09:47:07;11.40;99.90
22765;DHT22;11549;50.852;3.816;2024-03-02T09:49:36;11.30;99.90
22765;DHT22;11549;50.852;3.816;2024-03-02T09:52:07;11.10;99.90
22765;DHT22;11549;50.852;3.816;2024-03-02T09:54:36;11.00;99.90
22765;DHT22;11549;50.852;3.816;2024-03-02T09:57:04;11.00;99.90
22765;DHT22;11549;50.852;3.816;2024-03-02T09:59:33;10.90;99.90
22765;DHT22;11549;50.852;3.816;2024-03-02T10:02:03;10.80;99.90
22765;DHT22;11549;50.852;3.816;2024-03-02T10:04:35;10.90;99.90
22765;DHT22;11549;50.852;3.816;2024-03-02T10:07:14;11.00;99.90
22765;DHT22;11549;50.852;3.816;2024-03-02T10:09:44;11.00;99.90
22765;DHT22;11549;50.852;3.816;2024-03-02T10:12:15;11.00;99.90
22765;DHT22;11549;50.852;3.816;2024-03-02T10:14:45;11.00;99.90
22765;DHT22;11549;50.852;3.816;2024-03-02T10:17:18;11.30;99.90
22765;DHT22;11549;50.852;3.816;2024-03-02T10:19:48;11.50;99.90
22765;DHT22;11549;50.852;3.816;2024-03-02T10:22:16;11.60;99.90
22765;DHT22;11549;50.852;3.816;2024-03-02T10:24:45;11.60;99.90
22765;DHT22;11549;50.852;3.816;2024-03-02T10:27:22;11.70;99.90
22765;DHT22;11549;50.852;3.816;2024-03-02T10:29:50;11.70;99.90
22765;DHT22;11549;50.852;3.816;2024-03-02T10:32:22;11.70;99.90
22765;DHT22;11549;50.852;3.816;2024-03-02T10:34:52;11.50;99.90
22765;DHT22;11549;50.852;3.816;2024-03-02T10:37:21;11.30;99.90
22765;DHT22;11549;50.852;3.816;2024-03-02T10:39:49;11.20;99.90
22765;DHT22;11549;50.852;3.816;2024-03-02T10:42:21;11.10;99.90
22765;DHT22;11549;50.852;3.816;2024-03-02T10:44:51;11.10;99.90
22765;DHT22;11549;50.852;3.816;2024-03-02T10:47:20;11.00;99.90
22765;DHT22;11549;50.852;3.816;2024-03-02T10:49:52;11.00;99.90
22765;DHT22;11549;50.852;3.816;2024-03-02T10:52:22;11.10;99.90
22765;DHT22;11549;50.852;3.816;2024-03-02T10:54:51;11.00;99.90
22765;DHT22;11549;50.852;3.816;2024-03-02T10:57:21;10.90;99.90
22765;DHT22;11549;50.852;3.816;2024-03-02T10:59:52;10.70;99.90
22765;DHT22;11549;50.852;3.816;2024-03-02T11:02:24;10.80;99.90
22765;DHT22;11549;50.852;3.816;2024-03-02T11:04:55;10.90;99.90
22765;DHT22;11549;50.852;3.816;2024-03-02T11:07:25;11.10;99.90
22765;DHT22;11549;50.852;3.816;2024-03-02T11:09:59;11.10;99.90
22765;DHT22;11549;50.852;3.816;2024-03-02T11:12:39;10.80;99.90
22765;DHT22;11549;50.852;3.816;2024-03-02T11:15:16;10.80;99.90
22765;DHT22;11549;50.852;3.816;2024-03-02T11:17:46;10.80;99.90
22765;DHT22;11549;50.852;3.816;2024-03-02T11:20:18;10.90;99.90
22765;DHT22;11549;50.852;3.816;2024-03-02T11:22:47;10.90;99.90
22765;DHT22;11549;50.852;3.816;2024-03-02T11:25:26;11.00;99.90
22765;DHT22;11549;50.852;3.816;2024-03-02T11:28:02;11.00;99.90
22765;DHT22;11549;50.852;3.816;2024-03-02T11:30:50;11.10;99.90
22765;DHT22;11549;50.852;3.816;2024-03-02T11:33:27;11.30;99.90
22765;DHT22;11549;50.852;3.816;2024-03-02T11:36:00;11.20;99.90
22765;DHT22;11549;50.852;3.816;2024-03-02T11:38:31;11.20;99.90
22765;DHT22;11549;50.852;3.816;2024-03-02T11:41:01;11.20;99.90
22765;DHT22;11549;50.852;3.816;2024-03-02T11:43:30;11.20;99.90
22765;DHT22;11549;50.852;3.816;2024-03-02T11:46:00;11.20;99.90
22765;DHT22;11549;50.852;3.816;2024-03-02T11:48:35;11.10;99.90
22765;DHT22;11549;50.852;3.816;2024-03-02T11:51:06;11.30;99.90
22765;DHT22;11549;50.852;3.816;2024-03-02T11:53:35;11.30;99.90
22765;DHT22;11549;50.852;3.816;2024-03-02T11:56:06;11.30;99.90
22765;DHT22;11549;50.852;3.816;2024-03-02T11:58:39;11.30;99.90
22765;DHT22;11549;50.852;3.816;2024-03-02T12:01:10;11.30;99.90
22765;DHT22;11549;50.852;3.816;2024-03-02T12:03:40;11.20;99.90
22765;DHT22;11549;50.852;3.816;2024-03-02T12:06:11;11.00;99.90
22765;DHT22;11549;50.852;3.816;2024-03-02T12:08:40;11.00;99.90
22765;DHT22;11549;50.852;3.816;2024-03-02T12:11:13;10.90;99.90
22765;DHT22;11549;50.852;3.816;2024-03-02T12:13:52;10.90;99.90
22765;DHT22;11549;50.852;3.816;2024-03-02T12:16:24;10.80;99.90
22765;DHT22;11549;50.852;3.816;2024-03-02T12:18:52;10.80;99.90
22765;DHT22;11549;50.852;3.816;2024-03-02T12:21:22;10.90;99.90
22765;DHT22;11549;50.852;3.816;2024-03-02T12:23:51;10.80;99.90
22765;DHT22;11549;50.852;3.816;2024-03-02T12:26:19;10.90;99.90
22765;DHT22;11549;50.852;3.816;2024-03-02T12:28:48;10.90;99.90
22765;DHT22;11549;50.852;3.816;2024-03-02T12:31:19;10.90;99.90
22765;DHT22;11549;50.852;3.816;2024-03-02T12:33:47;10.90;99.90
22765;DHT22;11549;50.852;3.816;2024-03-02T12:36:16;10.60;99.90
22765;DHT22;11549;50.852;3.816;2024-03-02T12:38:47;10.60;99.90
22765;DHT22;11549;50.852;3.816;2024-03-02T12:41:15;10.70;99.90
22765;DHT22;11549;50.852;3.816;2024-03-02T12:43:44;10.80;99.90
22765;DHT22;11549;50.852;3.816;2024-03-02T12:46:12;10.70;99.90
22765;DHT22;11549;50.852;3.816;2024-03-02T12:48:41;10.80;99.90
22765;DHT22;11549;50.852;3.816;2024-03-02T12:51:09;10.80;99.90
22765;DHT22;11549;50.852;3.816;2024-03-02T12:53:38;10.60;99.90
22765;DHT22;11549;50.852;3.816;2024-03-02T12:56:08;10.50;99.90
22765;DHT22;11549;50.852;3.816;2024-03-02T12:58:40;10.60;99.90
22765;DHT22;11549;50.852;3.816;2024-03-02T13:01:09;10.70;99.90
22765;DHT22;11549;50.852;3.816;2024-03-02T13:03:38;10.70;99.90
22765;DHT22;11549;50.852;3.816;2024-03-02T13:06:07;10.50;99.90
22765;DHT22;11549;50.852;3.816;2024-03-02T13:08:36;10.40;99.90
22765;DHT22;11549;50.852;3.816;2024-03-02T13:11:05;10.40;99.90
22765;DHT22;11549;50.852;3.816;2024-03-02T13:13:36;10.40;99.90
22765;DHT22;11549;50.852;3.816;2024-03-02T13:16:07;10.60;99.90
22765;DHT22;11549;50.852;3.816;2024-03-02T13:18:36;10.60;99.90
22765;DHT22;11549;50.852;3.816;2024-03-02T13:21:04;10.60;99.90
22765;DHT22;11549;50.852;3.816;2024-03-02T13:23:34;10.50;99.90
22765;DHT22;11549;50.852;3.816;2024-03-02T13:26:02;10.50;99.90
22765;DHT22;11549;50.852;3.816;2024-03-02T13:28:31;10.50;99.90
22765;DHT22;11549;50.852;3.816;2024-03-02T13:31:02;10.40;99.90
22765;DHT22;11549;50.852;3.816;2024-03-02T13:33:30;10.40;99.90
22765;DHT22;11549;50.852;3.816;2024-03-02T13:36:00;10.50;99.90
22765;DHT22;11549;50.852;3.816;2024-03-02T13:38:29;10.70;99.90
22765;DHT22;11549;50.852;3.816;2024-03-02T13:40:58;10.80;99.90
22765;DHT22;11549;50.852;3.816;2024-03-02T13:43:27;10.90;99.90
22765;DHT22;11549;50.852;3.816;2024-03-02T13:46:00;10.90;99.90
22765;DHT22;11549;50.852;3.816;2024-03-02T13:48:29;10.80;99.90
22765;DHT22;11549;50.852;3.816;2024-03-02T13:50:59;10.80;99.90
22765;DHT22;11549;50.852;3.816;2024-03-02T13:53:27;10.80;99.90
22765;DHT22;11549;50.852;3.816;2024-03-02T13:55:56;10.80;99.90
22765;DHT22;11549;50.852;3.816;2024-03-02T13:58:24;10.90;99.90
22765;DHT22;11549;50.852;3.816;2024-03-02T14:00:53;10.80;99.90
22765;DHT22;11549;50.852;3.816;2024-03-02T14:03:25;10.80;99.90
22765;DHT22;11549;50.852;3.816;2024-03-02T14:05:57;10.90;99.90
22765;DHT22;11549;50.852;3.816;2024-03-02T14:08:26;11.00;99.90
22765;DHT22;11549;50.852;3.816;2024-03-02T14:10:54;11.00;99.90
22765;DHT22;11549;50.852;3.816;2024-03-02T14:13:27;10.90;99.90
22765;DHT22;11549;50.852;3.816;2024-03-02T14:15:56;10.90;99.90
22765;DHT22;11549;50.852;3.816;2024-03-02T14:18:26;10.90;99.90
22765;DHT22;11549;50.852;3.816;2024-03-02T14:20:55;10.90;99.90
22765;DHT22;11549;50.852;3.816;2024-03-02T14:23:23;10.80;99.90
22765;DHT22;11549;50.852;3.816;2024-03-02T14:25:52;10.70;99.90
22765;DHT22;11549;50.852;3.816;2024-03-02T14:28:21;10.70;99.90
22765;DHT22;11549;50.852;3.816;2024-03-02T14:31:09;10.60;99.90
22765;DHT22;11549;50.852;3.816;2024-03-02T14:33:39;10.50;99.90
22765;DHT22;11549;50.852;3.816;2024-03-02T14:36:08;10.70;99.90
22765;DHT22;11549;50.852;3.816;2024-03-02T14:38:36;10.70;99.90
22765;DHT22;11549;50.852;3.816;2024-03-02T14:41:05;10.70;99.90
22765;DHT22;11549;50.852;3.816;2024-03-02T14:43:34;10.70;99.90
22765;DHT22;11549;50.852;3.816;2024-03-02T14:46:04;10.80;99.90
22765;DHT22;11549;50.852;3.816;2024-03-02T14:48:33;10.90;99.90
22765;DHT22;11549;50.852;3.816;2024-03-02T14:51:04;10.90;99.90
22765;DHT22;11549;50.852;3.816;2024-03-02T14:53:32;11.00;99.90
22765;DHT22;11549;50.852;3.816;2024-03-02T14:56:01;11.00;99.90
22765;DHT22;11549;50.852;3.816;2024-03-02T14:58:29;10.90;99.90
22765;DHT22;11549;50.852;3.816;2024-03-02T15:00:58;11.00;99.90
22765;DHT22;11549;50.852;3.816;2024-03-02T15:03:26;11.10;99.90
22765;DHT22;11549;50.852;3.816;2024-03-02T15:05:55;11.10;99.90
22765;DHT22;11549;50.852;3.816;2024-03-02T15:08:25;11.20;99.90
22765;DHT22;11549;50.852;3.816;2024-03-02T15:10:53;11.10;99.90
22765;DHT22;11549;50.852;3.816;2024-03-02T15:13:24;11.10;99.90
22765;DHT22;11549;50.852;3.816;2024-03-02T15:15:53;11.10;99.90
22765;DHT22;11549;50.852;3.816;2024-03-02T15:18:21;11.10;99.90
22765;DHT22;11549;50.852;3.816;2024-03-02T15:20:51;11.10;99.90
22765;DHT22;11549;50.852;3.816;2024-03-02T15:23:19;11.10;99.90
22765;DHT22;11549;50.852;3.816;2024-03-02T15:25:49;11.10;99.90
22765;DHT22;11549;50.852;3.816;2024-03-02T15:28:18;11.10;99.90
22765;DHT22;11549;50.852;3.816;2024-03-02T15:30:46;11.10;99.90
22765;DHT22;11549;50.852;3.816;2024-03-02T15:33:15;11.00;99.90
22765;DHT22;11549;50.852;3.816;2024-03-02T15:35:45;11.00;99.90
22765;DHT22;11549;50.852;3.816;2024-03-02T15:38:13;11.10;99.90
22765;DHT22;11549;50.852;3.816;2024-03-02T15:40:59;11.10;99.90
22765;DHT22;11549;50.852;3.816;2024-03-02T15:43:28;11.20;99.90
22765;DHT22;11549;50.852;3.816;2024-03-02T15:45:58;11.10;99.90
22765;DHT22;11549;50.852;3.816;2024-03-02T15:48:27;11.10;99.90
22765;DHT22;11549;50.852;3.816;2024-03-02T15:50:55;11.00;99.90
22765;DHT22;11549;50.852;3.816;2024-03-02T15:53:28;11.10;99.90
22765;DHT22;11549;50.852;3.816;2024-03-02T15:55:56;11.10;99.90